METAR Data
IDs: Format: Raw Decoded Include TAF

Data at: 2348 UTC 29 May 2020

METAR for:KDNS (Denison Muni, IA, US)
Text:KDNS 292335Z AUTO 36007KT 10SM CLR 22/08 A3017 RMK AO2
Temperature: 22.0°C ( 72°F)
Dewpoint: 8.0°C ( 46°F) [RH = 41%]
Pressure (altimeter):30.17 inches Hg (1021.8 mb)
Winds:from the N (360 degrees) at 8 MPH (7 knots; 3.6 m/s)
Visibility:10 or more sm (16+ km)
Ceiling:at least 12,000 feet AGL
Clouds:sky clear below 12,000 feet AGL
QC Flag:automated observation with no human augmentation